Time;durP1;ratioP1;P1;durP2;ratioP2;P2;SDS_P1;SDS_P2;PMS_P1;PMS_P2;Temp;Humidity;BMP_temperature;BMP_pressure;BME280_temperature;BME280_humidity;BME280_pressure;Samples;Min_cycle;Max_cycle;Signal;HPM_P1;HPM_P2
2021/06/10 00:00:24;;;;;;;24.67;22.57;;;20.50;99.90;;;;;;5032449;28;20170;-82
2021/06/10 00:02:50;;;;;;;22.30;20.43;;;20.40;99.90;;;;;;5033003;28;20182;-82
2021/06/10 00:05:19;;;;;;;24.57;22.50;;;20.30;99.90;;;;;;5031910;28;20465;-82
2021/06/10 00:07:45;;;;;;;23.53;21.73;;;20.30;99.90;;;;;;5032819;28;20398;-82
2021/06/10 00:10:15;;;;;;;24.07;21.97;;;20.20;99.90;;;;;;5032381;28;20770;-82
2021/06/10 00:12:41;;;;;;;24.80;22.80;;;20.10;99.90;;;;;;5032873;28;20397;-82
2021/06/10 00:15:09;;;;;;;24.97;22.87;;;20.10;99.90;;;;;;5032195;28;20892;-82
2021/06/10 00:17:35;;;;;;;25.63;23.50;;;20.10;99.90;;;;;;5032824;28;20507;-82
2021/06/10 00:20:01;;;;;;;24.40;22.47;;;20.10;99.90;;;;;;5033029;28;20515;-82
2021/06/10 00:22:27;;;;;;;25.20;23.20;;;20.00;99.90;;;;;;5032100;28;20412;-82
2021/06/10 00:24:53;;;;;;;26.40;24.10;;;20.00;99.90;;;;;;5032624;28;20464;-82
2021/06/10 00:27:21;;;;;;;25.37;23.37;;;19.90;99.90;;;;;;5032018;28;20170;-82
2021/06/10 00:29:49;;;;;;;24.60;22.70;;;19.80;99.90;;;;;;5032340;28;20619;-82
2021/06/10 00:32:16;;;;;;;27.00;24.80;;;19.80;99.90;;;;;;4998027;28;20832;-82
2021/06/10 00:34:42;;;;;;;25.00;22.90;;;19.80;99.90;;;;;;5032577;28;20877;-82
2021/06/10 00:37:11;;;;;;;25.00;22.80;;;19.80;99.90;;;;;;5032000;28;20397;-82
2021/06/10 00:39:36;;;;;;;25.77;23.67;;;19.70;99.90;;;;;;5032274;28;20803;-82
2021/06/10 00:42:04;;;;;;;26.63;24.23;;;19.70;99.90;;;;;;5014873;28;20458;-82
2021/06/10 00:44:30;;;;;;;26.83;24.60;;;19.70;99.90;;;;;;5014152;28;20177;-82
2021/06/10 00:46:55;;;;;;;26.47;24.07;;;19.60;99.90;;;;;;5032409;28;20443;-82
2021/06/10 00:49:21;;;;;;;25.50;23.20;;;19.60;99.90;;;;;;5031797;28;20595;-82
2021/06/10 00:51:47;;;;;;;25.53;23.33;;;19.50;99.90;;;;;;5014884;28;20193;-81
2021/06/10 00:54:13;;;;;;;24.67;22.50;;;19.50;99.90;;;;;;5032035;28;20326;-82
2021/06/10 00:56:38;;;;;;;24.23;22.23;;;19.50;99.90;;;;;;5032368;28;20178;-81
2021/06/10 00:59:05;;;;;;;24.17;22.20;;;19.50;99.90;;;;;;5032358;28;20179;-81
2021/06/10 01:01:30;;;;;;;24.97;22.97;;;19.50;99.90;;;;;;5031698;28;20410;-81
2021/06/10 01:03:56;;;;;;;24.87;22.70;;;19.60;99.90;;;;;;5032310;28;20398;-82
2021/06/10 01:06:50;;;;;;;24.77;22.67;;;19.60;99.90;;;;;;5031714;28;20217;-81
2021/06/10 01:09:22;;;;;;;23.50;21.60;;;19.60;99.90;;;;;;5035467;28;20173;-81
2021/06/10 01:12:22;;;;;;;24.77;22.47;;;19.70;99.90;;;;;;5036179;28;20436;-81
2021/06/10 01:15:03;;;;;;;26.07;23.80;;;19.70;99.90;;;;;;5022078;28;20433;-80
2021/06/10 01:17:31;;;;;;;23.80;21.60;;;19.70;99.90;;;;;;5034962;28;20506;-80
2021/06/10 01:20:00;;;;;;;23.43;21.33;;;19.60;99.90;;;;;;5036038;28;20515;-80
2021/06/10 01:22:26;;;;;;;25.37;22.93;;;19.60;99.90;;;;;;5035279;28;20525;-80
2021/06/10 01:25:03;;;;;;;24.87;22.70;;;19.60;99.90;;;;;;5035789;28;21044;-81
2021/06/10 01:27:32;;;;;;;25.20;22.90;;;19.60;99.90;;;;;;5035311;28;20633;-81
2021/06/10 01:30:09;;;;;;;24.73;22.77;;;19.60;99.90;;;;;;5035812;28;20803;-81
2021/06/10 01:32:38;;;;;;;23.90;21.90;;;19.60;99.90;;;;;;5035195;28;20412;-81
2021/06/10 01:35:06;;;;;;;24.47;22.23;;;19.50;99.90;;;;;;5036004;28;20496;-81
2021/06/10 01:37:34;;;;;;;23.53;21.43;;;19.50;99.90;;;;;;5017465;28;20829;-81
2021/06/10 01:40:04;;;;;;;25.40;23.10;;;19.50;99.90;;;;;;5035750;28;20441;-81
2021/06/10 01:42:31;;;;;;;26.20;23.80;;;19.40;99.90;;;;;;5034950;28;20482;-81
2021/06/10 01:44:59;;;;;;;25.70;23.60;;;19.40;99.90;;;;;;5035530;28;20463;-81
2021/06/10 01:47:26;;;;;;;24.30;22.17;;;19.40;99.90;;;;;;5016926;28;20950;-81
2021/06/10 01:49:53;;;;;;;24.80;22.60;;;19.40;99.90;;;;;;5035436;28;20443;-81
2021/06/10 01:52:21;;;;;;;25.43;23.33;;;19.30;99.90;;;;;;5034497;28;20886;-81
2021/06/10 01:54:48;;;;;;;25.20;23.10;;;19.30;99.90;;;;;;5035325;28;20462;-81
2021/06/10 01:57:15;;;;;;;25.20;23.00;;;19.30;99.90;;;;;;5034645;28;20394;-81
2021/06/10 01:59:41;;;;;;;24.80;22.80;;;19.30;99.90;;;;;;5035204;28;20416;-81
2021/06/10 02:02:09;;;;;;;25.97;23.67;;;19.20;99.90;;;;;;5035216;28;20402;-81
2021/06/10 02:04:35;;;;;;;26.90;24.60;;;19.20;99.90;;;;;;5034724;28;20405;-81
2021/06/10 02:07:02;;;;;;;24.70;22.70;;;19.20;99.90;;;;;;5035397;28;20785;-81
2021/06/10 02:09:28;;;;;;;24.73;22.63;;;19.20;99.90;;;;;;5034404;28;20409;-81
2021/06/10 02:11:55;;;;;;;26.90;24.50;;;19.20;99.90;;;;;;5035004;28;20412;-81
2021/06/10 02:14:22;;;;;;;25.47;23.30;;;19.20;99.90;;;;;;5034378;28;20416;-81
2021/06/10 02:16:49;;;;;;;24.43;22.33;;;19.20;99.90;;;;;;5034696;28;20987;-81
2021/06/10 02:19:16;;;;;;;25.30;23.20;;;19.20;99.90;;;;;;5033624;28;20475;-80
2021/06/10 02:21:42;;;;;;;26.17;23.93;;;19.20;99.90;;;;;;5017064;28;20425;-81
2021/06/10 02:24:11;;;;;;;25.43;23.23;;;19.20;99.90;;;;;;5034798;28;20458;-81
2021/06/10 02:26:38;;;;;;;24.53;22.40;;;19.20;99.90;;;;;;5034354;28;20452;-81
2021/06/10 02:29:05;;;;;;;24.47;22.37;;;19.20;99.90;;;;;;5034729;28;20412;-81
2021/06/10 02:31:31;;;;;;;23.40;21.50;;;19.10;99.90;;;;;;5033968;28;20401;-81
2021/06/10 02:33:56;;;;;;;23.60;21.70;;;19.10;99.90;;;;;;5053762;28;20463;-81
2021/06/10 02:36:23;;;;;;;23.93;21.93;;;19.10;99.90;;;;;;5053353;28;20255;-81
2021/06/10 02:38:53;;;;;;;23.40;21.40;;;19.10;99.90;;;;;;5054113;28;20212;-81
2021/06/10 02:41:25;;;;;;;25.57;23.37;;;19.10;99.90;;;;;;5053240;28;20424;-81
2021/06/10 02:43:52;;;;;;;23.80;21.80;;;19.10;99.90;;;;;;5020561;28;20445;-81
2021/06/10 02:46:18;;;;;;;25.10;23.03;;;19.10;99.90;;;;;;5053400;28;20456;-82
2021/06/10 02:48:46;;;;;;;25.67;23.30;;;19.10;99.90;;;;;;5053565;28;20507;-82
2021/06/10 02:51:12;;;;;;;26.63;24.20;;;19.10;99.90;;;;;;5054049;28;20483;-81
2021/06/10 02:53:40;;;;;;;24.70;22.70;;;19.10;99.90;;;;;;5026819;28;20645;-82
2021/06/10 02:56:08;;;;;;;25.27;22.87;;;19.10;99.90;;;;;;5033631;28;20785;-81
2021/06/10 02:58:37;;;;;;;25.10;23.00;;;19.10;99.90;;;;;;5032939;28;20548;-82
2021/06/10 03:01:07;;;;;;;25.33;23.13;;;19.10;99.90;;;;;;5033741;28;20462;-81
2021/06/10 03:03:35;;;;;;;26.10;23.50;;;19.10;99.90;;;;;;5032915;28;20905;-81
2021/06/10 03:06:01;;;;;;;25.77;23.57;;;19.10;99.90;;;;;;5033574;28;20456;-81
2021/06/10 03:08:29;;;;;;;25.57;23.50;;;19.00;99.90;;;;;;5033860;28;20412;-81
2021/06/10 03:10:59;;;;;;;25.13;23.03;;;19.00;99.90;;;;;;5033689;28;20409;-81
2021/06/10 03:13:26;;;;;;;25.63;23.53;;;19.00;99.90;;;;;;5032463;28;20869;-81
2021/06/10 03:15:52;;;;;;;27.83;25.23;;;18.90;99.90;;;;;;5033226;28;20417;-80
2021/06/10 03:18:19;;;;;;;28.10;25.40;;;18.90;99.90;;;;;;5033128;28;20393;-81
2021/06/10 03:20:46;;;;;;;28.37;25.67;;;18.90;99.90;;;;;;5032759;28;20421;-81
2021/06/10 03:23:13;;;;;;;27.73;25.33;;;18.80;99.90;;;;;;5033321;28;20390;-81
2021/06/10 03:25:42;;;;;;;28.93;26.23;;;18.80;99.90;;;;;;5032411;28;20545;-82
2021/06/10 03:28:08;;;;;;;27.73;25.20;;;18.80;99.90;;;;;;5033137;28;20417;-81
2021/06/10 03:30:36;;;;;;;28.57;26.17;;;18.80;99.90;;;;;;5031487;28;20767;-81
2021/06/10 03:33:06;;;;;;;29.10;26.63;;;18.80;99.90;;;;;;5015671;28;20882;-81
2021/06/10 03:35:35;;;;;;;28.37;25.87;;;18.70;99.90;;;;;;5032771;28;20827;-81
2021/06/10 03:38:03;;;;;;;27.87;25.57;;;18.70;99.90;;;;;;5033237;28;20432;-81
2021/06/10 03:40:29;;;;;;;28.90;26.50;;;18.60;99.90;;;;;;5032464;28;20804;-81
2021/06/10 03:42:56;;;;;;;28.37;25.97;;;18.50;99.90;;;;;;5033595;28;20397;-81
2021/06/10 03:45:22;;;;;;;26.73;24.33;;;18.50;99.90;;;;;;5015313;28;20782;-81
2021/06/10 03:47:47;;;;;;;27.23;24.63;;;18.50;99.90;;;;;;5033277;28;20409;-81
2021/06/10 03:50:16;;;;;;;28.80;26.30;;;18.40;99.90;;;;;;5033250;28;20241;-81
2021/06/10 03:52:42;;;;;;;27.30;24.93;;;18.40;99.90;;;;;;5032675;28;20197;-81
2021/06/10 03:55:08;;;;;;;26.63;24.43;;;18.50;99.90;;;;;;5015517;28;20719;-81
2021/06/10 03:57:36;;;;;;;27.60;25.20;;;18.50;99.90;;;;;;5033339;28;20417;-81
2021/06/10 04:00:06;;;;;;;28.17;25.43;;;18.50;99.90;;;;;;5033106;28;20415;-81
2021/06/10 04:02:31;;;;;;;29.83;27.23;;;18.40;99.90;;;;;;5031656;28;20453;-81
2021/06/10 04:04:57;;;;;;;29.53;26.60;;;18.50;99.90;;;;;;5032846;28;20871;-81
2021/06/10 04:07:23;;;;;;;28.73;26.10;;;18.40;99.90;;;;;;5032276;28;20170;-81
2021/06/10 04:09:48;;;;;;;28.67;26.30;;;18.40;99.90;;;;;;5032927;28;20176;-81
2021/06/10 04:12:15;;;;;;;29.53;26.97;;;18.50;99.90;;;;;;5032883;28;20205;-81
2021/06/10 04:14:40;;;;;;;29.30;26.90;;;18.50;99.90;;;;;;5032250;28;20182;-81
2021/06/10 04:17:06;;;;;;;27.40;25.20;;;18.50;99.90;;;;;;5046913;28;20456;-81
2021/06/10 04:19:32;;;;;;;28.13;25.63;;;18.50;99.90;;;;;;5052020;28;20174;-81
2021/06/10 04:21:58;;;;;;;28.97;26.57;;;18.50;99.90;;;;;;5052616;28;20173;-81
2021/06/10 04:24:23;;;;;;;28.50;25.87;;;18.50;99.90;;;;;;5051885;28;20606;-81
2021/06/10 04:26:49;;;;;;;28.43;26.10;;;18.50;99.90;;;;;;5052564;28;20180;-81
2021/06/10 04:29:16;;;;;;;29.63;27.17;;;18.60;99.90;;;;;;5048744;28;20185;-82
2021/06/10 04:31:42;;;;;;;29.10;26.37;;;18.60;99.90;;;;;;5038980;28;20201;-82
2021/06/10 04:34:08;;;;;;;32.73;29.83;;;18.60;99.90;;;;;;5051141;28;20783;-82
2021/06/10 04:36:34;;;;;;;30.97;28.30;;;18.60;99.90;;;;;;5036481;28;20185;-82
2021/06/10 04:38:59;;;;;;;30.67;27.90;;;18.60;99.90;;;;;;5044575;28;20626;-82
2021/06/10 04:41:25;;;;;;;31.80;29.10;;;18.70;99.90;;;;;;5036976;28;20185;-82
2021/06/10 04:43:51;;;;;;;29.93;27.43;;;18.70;99.90;;;;;;5047132;28;20664;-82
2021/06/10 04:46:17;;;;;;;37.23;33.93;;;18.70;99.90;;;;;;5036153;28;20216;-81
2021/06/10 04:48:42;;;;;;;34.93;31.57;;;18.70;99.90;;;;;;5048999;28;20195;-81
2021/06/10 04:51:08;;;;;;;35.53;32.53;;;18.60;99.90;;;;;;5055982;28;20284;-82
2021/06/10 04:53:34;;;;;;;35.20;31.70;;;18.60;99.90;;;;;;5051440;28;20190;-82
2021/06/10 04:55:59;;;;;;;32.73;29.70;;;18.70;99.90;;;;;;5040709;28;20181;-82
2021/06/10 04:58:25;;;;;;;36.27;33.10;;;18.70;99.90;;;;;;5050062;28;20192;-82
2021/06/10 05:00:51;;;;;;;34.37;31.10;;;18.70;99.90;;;;;;5037378;28;20201;-82
2021/06/10 05:03:21;;;;;;;36.67;33.53;;;18.70;99.90;;;;;;5038045;28;20174;-81
2021/06/10 05:05:48;;;;;;;33.80;30.90;;;18.70;99.90;;;;;;5054887;28;20451;-82
2021/06/10 05:08:13;;;;;;;36.00;32.73;;;18.80;99.90;;;;;;5054178;28;20420;-86
2021/06/10 05:10:39;;;;;;;34.07;31.00;;;18.80;99.90;;;;;;5047798;28;20429;-83
2021/06/10 05:13:05;;;;;;;26.83;24.13;;;18.80;99.90;;;;;;5048971;28;20177;-82
2021/06/10 05:15:30;;;;;;;35.57;32.30;;;19.00;99.90;;;;;;5047030;28;20657;-82
2021/06/10 05:17:56;;;;;;;32.17;29.23;;;19.30;99.90;;;;;;5035425;28;20226;-79
2021/06/10 05:20:23;;;;;;;35.13;31.90;;;19.50;99.90;;;;;;5035296;28;20182;-80
2021/06/10 05:22:49;;;;;;;33.93;30.90;;;19.50;99.90;;;;;;5040195;28;20181;-80
2021/06/10 05:25:15;;;;;;;35.33;32.03;;;19.60;99.90;;;;;;5036014;28;21034;-81
2021/06/10 05:27:41;;;;;;;34.93;31.80;;;19.70;99.90;;;;;;5046739;28;20248;-81
2021/06/10 05:30:08;;;;;;;36.40;32.80;;;19.70;99.90;;;;;;5048375;28;20429;-79
2021/06/10 05:32:34;;;;;;;37.67;34.27;;;19.70;99.90;;;;;;5034624;28;20401;-79
2021/06/10 05:35:00;;;;;;;36.90;33.80;;;19.70;99.90;;;;;;5035762;28;20419;-81
2021/06/10 05:37:25;;;;;;;37.30;33.50;;;19.70;99.90;;;;;;5045953;28;20177;-86
2021/06/10 05:39:51;;;;;;;36.63;33.33;;;19.60;99.90;;;;;;5054291;28;20185;-80
2021/06/10 05:42:17;;;;;;;39.37;35.97;;;19.50;99.90;;;;;;5054826;28;20178;-81
2021/06/10 05:44:43;;;;;;;38.10;34.70;;;19.50;99.90;;;;;;5019354;28;20210;-81
2021/06/10 05:47:10;;;;;;;136.83;98.20;;;19.50;99.90;;;;;;5054768;28;20170;-80
2021/06/10 05:49:36;;;;;;;58.20;47.43;;;19.70;99.90;;;;;;5054047;28;20431;-81
2021/06/10 05:52:03;;;;;;;38.83;35.13;;;20.00;99.90;;;;;;5048458;28;20481;-83
2021/06/10 05:54:29;;;;;;;38.13;34.63;;;20.10;99.90;;;;;;5034758;28;20492;-81
2021/06/10 05:56:55;;;;;;;36.80;33.43;;;20.20;99.90;;;;;;5034675;28;20496;-82
2021/06/10 05:59:20;;;;;;;37.07;33.63;;;20.30;99.90;;;;;;5034761;28;20536;-84
2021/06/10 06:01:46;;;;;;;38.87;35.03;;;20.30;99.90;;;;;;5034038;28;20563;-83
2021/06/10 06:04:12;;;;;;;41.33;37.60;;;20.30;99.90;;;;;;5034592;28;20228;-83
2021/06/10 06:06:38;;;;;;;42.70;38.83;;;20.30;99.90;;;;;;5052195;28;20202;-83
2021/06/10 06:09:07;;;;;;;41.37;37.70;;;20.40;99.90;;;;;;5034710;28;20174;-83
2021/06/10 06:11:34;;;;;;;42.50;38.53;;;20.40;99.90;;;;;;5034030;28;20973;-83
2021/06/10 06:14:10;;;;;;;42.13;38.23;;;20.40;99.90;;;;;;5034960;28;20417;-84
2021/06/10 06:16:39;;;;;;;42.57;38.67;;;20.50;99.90;;;;;;5034335;28;20955;-83
2021/06/10 06:19:06;;;;;;;41.50;37.67;;;20.50;99.90;;;;;;5034877;28;20899;-83
2021/06/10 06:21:34;;;;;;;43.23;39.20;;;20.50;99.90;;;;;;5034234;28;20405;-82
2021/06/10 06:24:00;;;;;;;43.13;39.13;;;20.60;99.90;;;;;;5035148;28;20455;-83
2021/06/10 06:26:26;;;;;;;41.60;37.57;;;20.60;99.90;;;;;;5034785;28;20452;-83
2021/06/10 06:28:58;;;;;;;43.57;39.17;;;20.70;99.90;;;;;;5034049;28;20417;-83
2021/06/10 06:31:25;;;;;;;44.63;40.57;;;20.60;99.90;;;;;;5035063;28;20431;-83
2021/06/10 06:33:51;;;;;;;44.03;39.67;;;20.60;99.90;;;;;;5033895;28;20401;-83
2021/06/10 06:36:17;;;;;;;41.07;37.00;;;20.70;99.90;;;;;;5034576;28;20487;-83
2021/06/10 06:38:43;;;;;;;41.93;38.13;;;20.80;99.90;;;;;;5033614;28;20409;-83
2021/06/10 06:41:09;;;;;;;41.80;38.00;;;20.90;99.90;;;;;;5034213;28;20171;-83
2021/06/10 06:43:35;;;;;;;41.17;37.27;;;21.00;99.90;;;;;;5033349;28;20505;-82
2021/06/10 06:46:03;;;;;;;41.57;37.77;;;21.00;99.90;;;;;;5016682;28;20884;-84
2021/06/10 06:48:28;;;;;;;40.87;36.57;;;21.10;99.90;;;;;;5034416;28;20575;-83
2021/06/10 06:50:55;;;;;;;44.10;40.03;;;21.20;99.90;;;;;;5033850;28;20451;-83
2021/06/10 06:53:21;;;;;;;41.27;37.30;;;21.30;99.90;;;;;;5034279;28;20170;-83
2021/06/10 06:55:47;;;;;;;37.90;34.50;;;21.40;99.90;;;;;;5033577;28;20427;-83
2021/06/10 06:58:13;;;;;;;38.47;34.77;;;21.40;99.90;;;;;;5034192;28;20178;-83
2021/06/10 07:00:39;;;;;;;41.23;37.57;;;21.50;99.90;;;;;;5033541;28;20394;-83
2021/06/10 07:03:04;;;;;;;32.40;29.47;;;21.70;99.90;;;;;;5034275;28;20196;-83
2021/06/10 07:05:30;;;;;;;34.67;31.47;;;21.80;99.40;;;;;;5033551;28;20714;-80
2021/06/10 07:07:56;;;;;;;30.97;28.00;;;21.90;99.20;;;;;;5033972;28;20228;-83
2021/06/10 07:10:22;;;;;;;30.10;27.30;;;22.00;98.40;;;;;;5033760;28;20202;-83
2021/06/10 07:12:47;;;;;;;34.13;31.13;;;22.10;96.30;;;;;;5033272;28;20615;-83
2021/06/10 07:15:14;;;;;;;29.93;27.17;;;22.20;95.90;;;;;;5033824;28;20178;-83
2021/06/10 07:17:40;;;;;;;22.67;20.77;;;22.40;96.70;;;;;;5033207;28;20724;-83
2021/06/10 07:20:06;;;;;;;19.03;17.43;;;22.50;96.80;;;;;;5033581;28;20413;-83
2021/06/10 07:22:36;;;;;;;18.50;16.90;;;22.60;95.20;;;;;;5033165;28;20471;-81
2021/06/10 07:25:01;;;;;;;16.67;15.17;;;22.70;94.50;;;;;;5033611;28;20463;-83
2021/06/10 07:27:27;;;;;;;14.13;12.93;;;22.80;93.90;;;;;;5033912;28;20477;-83
2021/06/10 07:29:54;;;;;;;14.70;13.50;;;22.90;92.40;;;;;;5032987;28;20437;-83
2021/06/10 07:32:20;;;;;;;15.63;14.40;;;23.10;93.20;;;;;;5033597;28;20170;-83
2021/06/10 07:34:46;;;;;;;12.27;11.47;;;23.10;91.80;;;;;;5032929;28;20424;-83
2021/06/10 07:37:11;;;;;;;10.30;9.47;;;23.20;90.90;;;;;;5033556;28;20504;-83
2021/06/10 07:39:38;;;;;;;12.47;11.70;;;23.30;90.60;;;;;;5032811;28;20641;-83
2021/06/10 07:42:04;;;;;;;9.27;8.57;;;23.50;90.50;;;;;;5033360;28;20262;-83
2021/06/10 07:44:30;;;;;;;9.73;9.07;;;23.60;89.50;;;;;;5033258;28;20412;-83
2021/06/10 07:46:56;;;;;;;10.97;10.17;;;23.70;89.40;;;;;;5032656;28;20463;-84
2021/06/10 07:49:22;;;;;;;8.40;7.90;;;23.80;88.40;;;;;;5033263;28;20240;-83
2021/06/10 07:51:48;;;;;;;9.10;8.27;;;23.90;88.00;;;;;;5032572;28;20619;-83
2021/06/10 07:54:13;;;;;;;9.37;8.77;;;24.00;88.90;;;;;;5033064;28;20401;-84
2021/06/10 07:56:39;;;;;;;9.37;8.67;;;24.10;88.70;;;;;;5032443;28;20427;-85
2021/06/10 07:59:05;;;;;;;8.93;8.33;;;24.20;90.80;;;;;;5033097;28;20206;-84
2021/06/10 08:01:31;;;;;;;9.57;8.67;;;24.30;88.60;;;;;;5033049;28;20174;-85
2021/06/10 08:03:57;;;;;;;9.60;8.90;;;24.40;89.40;;;;;;5032665;28;20419;-84
2021/06/10 08:06:23;;;;;;;8.97;8.30;;;24.50;90.20;;;;;;5032864;28;20463;-84
2021/06/10 08:08:49;;;;;;;9.50;8.90;;;24.60;87.40;;;;;;5032337;28;20175;-84
2021/06/10 08:11:15;;;;;;;9.93;9.23;;;24.70;85.00;;;;;;5033028;28;20405;-85
2021/06/10 08:13:41;;;;;;;9.50;8.90;;;24.80;87.00;;;;;;5032152;28;20441;-84
2021/06/10 08:16:07;;;;;;;9.03;8.33;;;24.90;87.20;;;;;;5032182;28;20485;-84
2021/06/10 08:18:33;;;;;;;10.23;8.00;;;25.10;85.40;;;;;;5032335;28;20252;-84
2021/06/10 08:21:00;;;;;;;9.20;8.50;;;25.10;85.70;;;;;;5032192;28;20881;-84
2021/06/10 08:23:26;;;;;;;9.37;8.77;;;25.20;81.30;;;;;;5032700;28;20202;-84
2021/06/10 08:25:57;;;;;;;7.40;7.00;;;25.30;84.70;;;;;;5032048;28;20857;-84
2021/06/10 08:28:23;;;;;;;8.87;8.17;;;25.40;83.70;;;;;;5032956;28;20409;-84
2021/06/10 08:30:49;;;;;;;7.93;7.30;;;25.50;81.50;;;;;;5031989;28;20405;-84
2021/06/10 08:33:15;;;;;;;9.03;8.43;;;25.60;82.00;;;;;;5034814;28;20427;-85
2021/06/10 08:35:41;;;;;;;8.00;7.40;;;25.70;83.50;;;;;;5051459;28;20420;-85
2021/06/10 08:38:07;;;;;;;6.83;6.33;;;25.90;86.10;;;;;;5051578;28;20170;-85
2021/06/10 08:40:34;;;;;;;7.27;6.77;;;26.00;84.20;;;;;;5047565;28;20186;-87
2021/06/10 08:43:00;;;;;;;6.97;6.57;;;26.10;80.90;;;;;;5037352;28;20424;-86
2021/06/10 08:45:28;;;;;;;7.40;7.00;;;26.20;81.50;;;;;;5051745;28;20452;-90
2021/06/10 08:47:55;;;;;;;6.83;6.33;;;26.20;80.40;;;;;;5050377;28;20501;-90
2021/06/10 08:50:25;;;;;;;5.70;5.40;;;26.30;79.30;;;;;;5051908;28;20412;-85
2021/06/10 08:53:01;;;;;;;5.33;5.03;;;26.30;79.60;;;;;;5040465;28;20408;-86
2021/06/10 08:55:28;;;;;;;6.37;5.97;;;26.50;77.80;;;;;;5051541;28;20409;-86
2021/06/10 08:57:54;;;;;;;5.07;4.70;;;26.60;77.30;;;;;;5042370;28;20417;-85
2021/06/10 09:00:22;;;;;;;8.20;5.97;;;26.60;77.00;;;;;;5052312;28;20414;-86
2021/06/10 09:02:53;;;;;;;5.13;4.83;;;26.70;76.70;;;;;;5050922;28;20899;-88
2021/06/10 09:05:20;;;;;;;5.23;4.83;;;26.80;76.00;;;;;;5024217;28;20468;-94
2021/06/10 09:07:53;;;;;;;6.00;5.60;;;26.80;74.20;;;;;;5038795;28;20428;-95
2021/06/10 09:10:26;;;;;;;6.93;6.30;;;27.00;74.20;;;;;;5052241;28;20424;-92
2021/06/10 09:12:55;;;;;;;6.70;6.20;;;27.00;74.10;;;;;;5050565;28;20421;-87
2021/06/10 09:15:26;;;;;;;7.07;6.67;;;27.20;74.80;;;;;;5050935;28;20435;-88
2021/06/10 09:17:54;;;;;;;6.57;6.17;;;27.30;72.60;;;;;;5050500;28;20448;-87
2021/06/10 09:20:20;;;;;;;6.30;5.90;;;27.40;72.10;;;;;;5041112;28;20852;-89
2021/06/10 09:22:49;;;;;;;6.07;5.70;;;27.40;73.80;;;;;;5048774;28;20432;-86
2021/06/10 09:25:19;;;;;;;6.93;6.50;;;27.60;72.90;;;;;;5040093;28;20457;-88
2021/06/10 09:27:54;;;;;;;6.90;6.40;;;27.70;72.60;;;;;;5048829;28;20432;-88
2021/06/10 09:30:34;;;;;;;6.40;5.90;;;27.80;75.20;;;;;;5049254;28;20815;-88
2021/06/10 09:33:01;;;;;;;6.47;5.90;;;27.90;72.30;;;;;;5051000;28;20903;-88
2021/06/10 09:35:32;;;;;;;7.10;6.50;;;27.90;74.20;;;;;;5052766;28;20503;-89
2021/06/10 09:38:01;;;;;;;6.40;5.90;;;28.00;70.70;;;;;;5054524;28;20424;-87
2021/06/10 09:40:29;;;;;;;7.60;5.77;;;28.10;71.70;;;;;;5033267;28;20486;-86
2021/06/10 09:42:55;;;;;;;8.53;7.63;;;28.20;66.70;;;;;;5039338;28;20409;-89
2021/06/10 09:45:29;;;;;;;6.93;6.30;;;28.20;65.90;;;;;;5054383;28;20961;-89
2021/06/10 09:47:59;;;;;;;5.53;5.13;;;28.30;66.30;;;;;;5036189;28;20782;-90
2021/06/10 09:50:45;;;;;;;6.57;6.17;;;28.30;68.00;;;;;;5051529;28;20441;-88
2021/06/10 09:53:16;;;;;;;5.97;5.57;;;28.40;66.10;;;;;;5044071;28;20420;-94
2021/06/10 09:55:54;;;;;;;6.60;6.20;;;28.50;66.50;;;;;;5058284;28;20919;-95
2021/06/10 09:58:32;;;;;;;6.53;6.03;;;28.60;66.40;;;;;;5044994;28;20413;-95
2021/06/10 10:01:20;;;;;;;6.83;6.43;;;28.70;65.50;;;;;;5049902;28;22177;-94
2021/06/10 10:03:49;;;;;;;6.60;6.23;;;28.70;66.90;;;;;;5057293;28;20420;-96
2021/06/10 10:06:20;;;;;;;6.20;5.80;;;28.70;68.40;;;;;;5056373;28;20509;-95
2021/06/10 10:08:54;;;;;;;8.60;8.00;;;28.80;68.70;;;;;;5042099;28;20420;-96
2021/06/10 10:11:22;;;;;;;6.10;5.70;;;28.80;66.80;;;;;;5064097;28;20482;-96
2021/06/10 10:13:51;;;;;;;7.07;6.60;;;28.80;67.10;;;;;;5047664;28;20439;-96
2021/06/10 10:16:23;;;;;;;6.80;6.30;;;28.80;67.80;;;;;;5061755;28;20452;-96
2021/06/10 10:18:51;;;;;;;8.73;8.17;;;28.80;69.50;;;;;;5062093;28;20417;-96
2021/06/10 10:21:17;;;;;;;6.63;6.20;;;28.90;68.70;;;;;;5058156;28;20779;-96
2021/06/10 10:23:43;;;;;;;7.97;7.47;;;29.00;66.10;;;;;;5053189;28;20412;-86
2021/06/10 10:26:09;;;;;;;6.10;5.70;;;29.00;65.60;;;;;;5053051;28;20456;-95
2021/06/10 10:28:37;;;;;;;9.77;9.17;;;29.00;64.80;;;;;;5037664;28;20514;-95
2021/06/10 10:31:06;;;;;;;8.97;8.47;;;29.10;63.70;;;;;;5052396;28;20198;-96
2021/06/10 10:33:41;;;;;;;7.93;7.53;;;29.00;62.00;;;;;;5050810;28;20416;-94
2021/06/10 10:36:07;;;;;;;8.60;8.00;;;29.00;62.50;;;;;;5046423;28;20900;-88
2021/06/10 10:38:41;;;;;;;6.47;6.07;;;29.00;67.20;;;;;;5053110;28;20499;-89
2021/06/10 10:41:12;;;;;;;6.60;6.20;;;29.10;63.30;;;;;;5035063;28;20174;-88
2021/06/10 10:43:38;;;;;;;6.90;6.50;;;29.20;62.90;;;;;;5054021;28;20478;-88
2021/06/10 10:46:05;;;;;;;6.40;6.03;;;29.30;63.50;;;;;;5049378;28;20471;-88
2021/06/10 10:48:34;;;;;;;8.07;7.67;;;29.30;60.60;;;;;;5039541;28;20963;-89
2021/06/10 10:51:00;;;;;;;6.50;6.07;;;29.30;61.40;;;;;;5053502;28;20417;-88
2021/06/10 10:53:29;;;;;;;6.60;6.20;;;29.40;62.00;;;;;;5035874;28;20442;-88
2021/06/10 10:56:09;;;;;;;8.07;7.57;;;29.30;62.10;;;;;;5051367;28;20915;-88
2021/06/10 10:58:35;;;;;;;340.80;302.83;;;29.30;61.30;;;;;;5048902;28;20433;-88
2021/06/10 11:01:03;;;;;;;61.17;54.97;;;29.30;61.70;;;;;;5045725;28;20519;-85
2021/06/10 11:03:30;;;;;;;10.80;10.10;;;29.50;65.50;;;;;;5052746;28;20420;-85
2021/06/10 11:05:58;;;;;;;7.20;6.60;;;29.60;64.00;;;;;;5052770;28;20471;-86
2021/06/10 11:08:44;;;;;;;7.40;6.70;;;29.60;63.70;;;;;;5053640;28;20416;-86
2021/06/10 11:11:10;;;;;;;7.43;7.00;;;29.60;63.90;;;;;;5052223;28;20452;-90
2021/06/10 11:13:46;;;;;;;7.57;6.90;;;29.60;60.40;;;;;;5039850;28;20966;-88
2021/06/10 11:16:14;;;;;;;7.83;7.33;;;29.50;61.30;;;;;;5051474;28;20218;-92
2021/06/10 11:18:48;;;;;;;7.33;6.73;;;29.60;60.90;;;;;;5035497;28;20424;-89
2021/06/10 11:21:40;;;;;;;9.10;8.60;;;29.60;62.40;;;;;;5053051;28;20408;-92
2021/06/10 11:24:24;;;;;;;8.00;7.60;;;29.50;62.80;;;;;;5037897;28;20960;-94
2021/06/10 11:27:01;;;;;;;7.60;7.20;;;29.50;62.80;;;;;;5050240;28;20540;-94
2021/06/10 11:29:28;;;;;;;6.40;6.00;;;29.50;62.90;;;;;;5035990;28;20392;-93
2021/06/10 11:32:20;;;;;;;5.77;5.47;;;29.50;65.10;;;;;;5034804;28;20432;-94
2021/06/10 11:34:53;;;;;;;5.70;5.40;;;29.50;62.60;;;;;;5033859;28;20429;-93
2021/06/10 11:37:21;;;;;;;5.87;5.57;;;29.50;59.30;;;;;;5038796;28;20420;-93
2021/06/10 11:39:47;;;;;;;6.80;6.40;;;29.40;59.90;;;;;;5048696;28;20795;-90
2021/06/10 11:42:13;;;;;;;6.70;6.30;;;29.40;58.30;;;;;;5047190;28;20419;-92
2021/06/10 11:44:48;;;;;;;6.17;5.87;;;29.20;57.10;;;;;;5040842;28;20196;-93
2021/06/10 11:47:28;;;;;;;6.60;6.30;;;29.20;61.60;;;;;;5040943;28;20169;-93
2021/06/10 11:49:54;;;;;;;6.63;6.13;;;29.20;65.60;;;;;;5027365;28;20420;-93
2021/06/10 11:52:20;;;;;;;6.80;6.20;;;29.30;63.80;;;;;;5040608;28;20446;-93
2021/06/10 11:55:01;;;;;;;5.70;5.37;;;29.20;59.60;;;;;;5034808;28;20979;-92
2021/06/10 11:57:28;;;;;;;6.53;6.03;;;29.20;61.80;;;;;;5050726;28;20562;-92
2021/06/10 11:59:54;;;;;;;6.63;6.13;;;29.20;61.30;;;;;;5035011;28;20417;-93
2021/06/10 12:02:23;;;;;;;5.87;5.50;;;29.20;64.10;;;;;;5037555;28;20477;-91
2021/06/10 12:05:04;;;;;;;6.13;5.73;;;29.20;58.20;;;;;;5049418;28;20547;-89
2021/06/10 12:07:30;;;;;;;6.67;6.17;;;29.20;59.90;;;;;;5042110;28;20904;-91
2021/06/10 12:09:57;;;;;;;6.30;5.90;;;29.20;59.50;;;;;;5024291;28;20467;-92
2021/06/10 12:12:44;;;;;;;6.87;6.57;;;29.20;62.90;;;;;;5049678;28;20223;-94
2021/06/10 12:15:26;;;;;;;5.73;5.43;;;29.20;60.00;;;;;;5040190;28;20425;-94
2021/06/10 12:18:00;;;;;;;8.40;7.70;;;29.20;63.70;;;;;;5050530;28;20472;-88
2021/06/10 12:20:28;;;;;;;6.90;6.37;;;29.20;64.10;;;;;;5051975;28;20412;-93
2021/06/10 12:22:54;;;;;;;8.53;8.23;;;29.20;65.90;;;;;;5043200;28;20426;-92
2021/06/10 12:25:26;;;;;;;6.50;6.20;;;29.20;62.70;;;;;;5051750;28;20885;-93
2021/06/10 12:27:57;;;;;;;7.40;7.00;;;29.30;62.70;;;;;;5034542;28;20296;-90
2021/06/10 12:30:24;;;;;;;6.63;6.23;;;29.20;59.30;;;;;;5031253;28;20408;-92
2021/06/10 12:32:51;;;;;;;6.80;6.23;;;29.20;61.60;;;;;;5027954;28;20518;-90
2021/06/10 12:35:21;;;;;;;5.30;5.00;;;29.20;61.60;;;;;;5038770;28;20428;-92
2021/06/10 12:37:52;;;;;;;6.60;6.00;;;29.20;61.90;;;;;;5051451;28;20433;-91